createdAt,value
2022-08-26T00:03:26.795Z,17.50
2022-08-26T00:08:29.834Z,17.23
2022-08-26T00:13:32.502Z,17.10
2022-08-26T00:18:38.810Z,16.84
2022-08-26T00:23:43.318Z,16.77
2022-08-26T00:28:45.780Z,16.65
2022-08-26T00:33:48.062Z,16.78
2022-08-26T00:38:51.864Z,16.75
2022-08-26T00:43:54.141Z,16.58
2022-08-26T00:49:12.245Z,16.67
2022-08-26T00:54:17.129Z,16.33
2022-08-26T00:59:20.689Z,16.35
2022-08-26T01:04:24.128Z,16.34
2022-08-26T01:09:28.802Z,16.23
2022-08-26T01:14:35.432Z,16.22
2022-08-26T01:19:44.843Z,16.25
2022-08-26T01:24:48.470Z,16.30
2022-08-26T01:29:51.954Z,16.24
2022-08-26T01:34:55.833Z,16.18
2022-08-26T01:39:59.128Z,16.12
2022-08-26T01:45:11.399Z,16.11
2022-08-26T01:50:27.841Z,15.96
2022-08-26T01:55:34.623Z,15.77
2022-08-26T02:00:38.441Z,15.91
2022-08-26T02:05:40.644Z,15.83
2022-08-26T02:10:45.884Z,15.97
2022-08-26T02:15:49.356Z,16.05
2022-08-26T02:20:54.156Z,16.00
2022-08-26T02:26:00.861Z,15.92
2022-08-26T02:31:03.638Z,16.06
2022-08-26T02:36:08.214Z,15.78
2022-08-26T02:41:11.390Z,15.68
2022-08-26T02:46:13.759Z,15.65
2022-08-26T02:51:23.871Z,15.51
2022-08-26T02:56:25.984Z,15.62
2022-08-26T03:01:34.210Z,15.84
2022-08-26T03:06:37.753Z,15.71
2022-08-26T03:11:40.276Z,15.48
2022-08-26T03:16:42.991Z,15.55
2022-08-26T03:21:45.266Z,15.47
2022-08-26T03:26:52.468Z,15.32
2022-08-26T03:32:00.505Z,15.57
2022-08-26T03:37:02.898Z,15.75
2022-08-26T03:42:06.097Z,15.89
2022-08-26T03:47:08.358Z,15.75
2022-08-26T03:52:10.694Z,16.13
2022-08-26T03:57:12.965Z,16.27
2022-08-26T04:02:19.335Z,15.95
2022-08-26T04:07:22.560Z,15.76
2022-08-26T04:12:26.023Z,15.60
2022-08-26T04:17:29.803Z,15.49
2022-08-26T04:22:32.078Z,15.53
2022-08-26T04:27:34.208Z,15.63
2022-08-26T04:32:36.489Z,15.77
2022-08-26T04:37:39.133Z,15.98
2022-08-26T04:42:45.273Z,16.17
2022-08-26T04:47:47.362Z,16.44
2022-08-26T04:52:50.249Z,16.84
2022-08-26T04:57:53.456Z,16.86
2022-08-26T05:02:55.566Z,17.18
2022-08-26T05:07:57.778Z,17.55
2022-08-26T05:13:00.454Z,17.41
2022-08-26T05:18:04.467Z,17.25
2022-08-26T05:23:06.832Z,17.44
2022-08-26T05:28:11.505Z,17.85
2022-08-26T05:33:15.291Z,18.36
2022-08-26T05:38:21.851Z,18.53
2022-08-26T05:43:24.217Z,18.45
2022-08-26T05:48:26.653Z,18.75
2022-08-26T05:53:28.830Z,19.35
2022-08-26T05:58:31.353Z,19.63
2022-08-26T06:03:38.748Z,19.61
2022-08-26T06:08:41.797Z,20.11
2022-08-26T06:13:44.911Z,20.00
2022-08-26T06:18:48.680Z,19.83
2022-08-26T06:24:11.809Z,20.22
2022-08-26T06:29:16.418Z,20.21
2022-08-26T06:34:31.174Z,20.39
2022-08-26T06:39:33.791Z,20.58
2022-08-26T06:44:35.952Z,20.97
2022-08-26T06:49:38.143Z,21.27
2022-08-26T06:54:44.233Z,21.67
2022-08-26T06:59:46.768Z,21.92
2022-08-26T07:04:51.166Z,22.30
2022-08-26T07:09:54.502Z,22.49
2022-08-26T07:14:57.002Z,23.04
2022-08-26T07:20:00.140Z,24.04
2022-08-26T07:25:02.318Z,25.75
2022-08-26T07:30:07.667Z,26.71
2022-08-26T07:35:09.994Z,26.22
2022-08-26T07:40:12.211Z,25.66
2022-08-26T07:45:14.512Z,25.61
2022-08-26T07:50:17.777Z,25.86
2022-08-26T07:55:19.956Z,25.73
2022-08-26T08:00:23.698Z,25.92
2022-08-26T08:05:27.306Z,26.28
2022-08-26T08:10:37.876Z,26.82
2022-08-26T08:15:41.332Z,26.88
2022-08-26T08:21:21.109Z,26.52
2022-08-26T08:26:26.349Z,26.52
2022-08-26T08:31:56.908Z,26.20
2022-08-26T08:36:54.381Z,26.67
2022-08-26T08:42:12.065Z,26.85
2022-08-26T08:47:34.401Z,27.23
2022-08-26T08:52:37.515Z,27.48
2022-08-26T08:57:42.416Z,27.81
2022-08-26T09:03:13.474Z,28.20
2022-08-26T09:08:22.152Z,28.00
2022-08-26T09:13:27.183Z,27.85
2022-08-26T09:18:32.558Z,28.26
2022-08-26T09:29:23.060Z,28.14
2022-08-26T09:34:28.509Z,28.75
2022-08-26T09:39:33.494Z,28.81
2022-08-26T09:44:54.665Z,29.44
2022-08-26T09:50:44.179Z,30.78
2022-08-26T09:56:09.435Z,29.85
2022-08-26T10:01:31.692Z,29.73
2022-08-26T10:06:42.242Z,30.07
2022-08-26T10:11:52.197Z,30.13
2022-08-26T10:17:01.117Z,29.23
2022-08-26T10:22:14.266Z,28.54
2022-08-26T10:27:40.577Z,28.37
2022-08-26T10:33:02.057Z,28.15
2022-08-26T10:38:12.253Z,27.80
2022-08-26T10:43:26.837Z,27.86
2022-08-26T10:48:38.465Z,27.89
2022-08-26T10:53:57.500Z,27.69
2022-08-26T10:59:24.414Z,28.12
2022-08-26T11:04:50.773Z,28.00
2022-08-26T11:09:53.265Z,28.20
2022-08-26T11:14:58.794Z,28.11
2022-08-26T11:20:07.379Z,28.31
2022-08-26T11:25:14.225Z,28.22
2022-08-26T11:30:18.571Z,28.34
2022-08-26T11:35:21.877Z,28.38
2022-08-26T11:40:32.363Z,28.40
2022-08-26T11:45:39.558Z,28.41
2022-08-26T11:50:56.218Z,28.36
2022-08-26T11:56:01.840Z,28.43
2022-08-26T12:01:09.938Z,28.64
2022-08-26T12:06:35.473Z,28.69
2022-08-26T12:11:41.473Z,28.67
2022-08-26T12:16:46.132Z,29.20
2022-08-26T12:21:49.291Z,29.52
2022-08-26T12:27:10.284Z,29.73
2022-08-26T12:32:18.589Z,29.51
2022-08-26T12:37:21.366Z,29.51
2022-08-26T12:42:40.881Z,29.77
2022-08-26T12:47:45.585Z,29.72
2022-08-26T12:53:10.796Z,29.90
2022-08-26T12:58:37.200Z,30.15
2022-08-26T13:03:45.022Z,29.80
2022-08-26T13:08:56.189Z,30.04
2022-08-26T13:14:07.808Z,29.86
2022-08-26T13:19:16.470Z,29.50
2022-08-26T13:24:40.284Z,29.67
2022-08-26T13:29:42.667Z,29.96
2022-08-26T13:34:51.270Z,29.62
2022-08-26T13:39:54.652Z,29.49
2022-08-26T13:44:58.308Z,29.77
2022-08-26T13:50:00.564Z,29.86
2022-08-26T13:55:04.065Z,29.97
2022-08-26T14:00:07.621Z,29.89
2022-08-26T14:05:13.560Z,29.80
2022-08-26T14:10:16.312Z,30.03
2022-08-26T14:15:19.493Z,29.56
2022-08-26T14:20:28.583Z,29.67
2022-08-26T14:25:32.642Z,29.65
2022-08-26T14:30:35.380Z,29.56
2022-08-26T14:35:37.935Z,29.82
2022-08-26T14:40:44.759Z,29.84
2022-08-26T14:45:47.653Z,29.52
2022-08-26T14:50:50.285Z,29.05
2022-08-26T14:55:53.182Z,28.57
2022-08-26T15:00:55.405Z,28.26
2022-08-26T15:05:59.690Z,27.95
2022-08-26T15:11:03.402Z,27.56
2022-08-26T15:16:05.913Z,27.31
2022-08-26T15:21:08.660Z,27.18
2022-08-26T15:26:12.860Z,27.00
2022-08-26T15:31:15.698Z,26.78
2022-08-26T15:36:17.884Z,26.66
2022-08-26T15:41:20.243Z,26.59
2022-08-26T15:46:22.824Z,26.34
2022-08-26T15:51:33.839Z,25.67
2022-08-26T15:56:37.714Z,25.50
2022-08-26T16:01:40.791Z,25.49
2022-08-26T16:06:43.736Z,25.31
2022-08-26T16:11:45.872Z,24.82
2022-08-26T16:16:48.959Z,24.81
2022-08-26T16:21:51.791Z,24.36
2022-08-26T16:26:54.762Z,24.34
2022-08-26T16:31:57.074Z,23.86
2022-08-26T16:37:00.794Z,23.82
2022-08-26T16:42:06.370Z,23.36
2022-08-26T16:47:08.705Z,23.10
2022-08-26T16:52:12.146Z,22.55
2022-08-26T16:57:16.521Z,22.39
2022-08-26T17:02:19.008Z,22.20
2022-08-26T17:07:21.739Z,22.17
2022-08-26T17:12:24.204Z,22.04
2022-08-26T17:17:26.375Z,21.95
2022-08-26T17:22:32.726Z,21.83
2022-08-26T17:27:37.031Z,21.75
2022-08-26T17:32:41.676Z,21.77
2022-08-26T17:37:45.048Z,21.51
2022-08-26T17:42:48.139Z,21.51
2022-08-26T17:47:50.486Z,21.31
2022-08-26T17:52:52.724Z,21.09
2022-08-26T17:57:54.967Z,20.98
2022-08-26T18:02:57.624Z,21.08
2022-08-26T18:07:59.926Z,21.03
2022-08-26T18:13:02.267Z,20.84
2022-08-26T18:18:04.767Z,21.11
2022-08-26T18:23:07.384Z,21.08
2022-08-26T18:28:10.274Z,21.05
2022-08-26T18:33:14.921Z,21.12
2022-08-26T18:38:17.586Z,21.33
2022-08-26T18:43:21.487Z,21.26
2022-08-26T18:48:23.876Z,21.19
2022-08-26T18:53:28.236Z,20.42
2022-08-26T18:58:30.534Z,20.11
2022-08-26T19:03:33.116Z,20.15
2022-08-26T19:08:35.476Z,20.02
2022-08-26T19:13:38.087Z,19.91
2022-08-26T19:18:40.457Z,19.74
2022-08-26T19:23:43.239Z,19.72
2022-08-26T19:28:45.953Z,19.59
2022-08-26T19:33:48.655Z,19.45
2022-08-26T19:38:51.499Z,19.42
2022-08-26T19:43:58.867Z,19.50
2022-08-26T19:49:01.108Z,19.32
2022-08-26T19:54:04.780Z,19.02
2022-08-26T19:59:06.996Z,19.15
2022-08-26T20:04:09.310Z,18.85
2022-08-26T20:09:11.548Z,18.84
2022-08-26T20:14:13.854Z,18.73
2022-08-26T20:19:37.516Z,19.00
2022-08-26T20:24:40.672Z,19.20
2022-08-26T20:29:43.290Z,18.77
2022-08-26T20:34:45.796Z,18.56
2022-08-26T20:39:48.787Z,18.55
2022-08-26T20:44:54.352Z,18.49
2022-08-26T20:49:57.188Z,18.46
2022-08-26T20:54:59.500Z,18.49
2022-08-26T21:00:02.045Z,18.34
2022-08-26T21:05:05.060Z,18.43
2022-08-26T21:10:07.570Z,18.18
2022-08-26T21:15:10.900Z,18.55
2022-08-26T21:20:13.068Z,18.57
2022-08-26T21:25:15.276Z,18.38
2022-08-26T21:30:17.589Z,18.27
2022-08-26T21:35:19.820Z,18.15
2022-08-26T21:40:22.198Z,18.17
2022-08-26T21:45:24.646Z,18.13
2022-08-26T21:50:29.660Z,18.13
2022-08-26T21:55:35.684Z,17.95
2022-08-26T22:00:38.300Z,17.54
2022-08-26T22:05:51.588Z,17.45
2022-08-26T22:10:55.175Z,17.45
2022-08-26T22:15:59.010Z,17.46
2022-08-26T22:21:04.921Z,17.74
2022-08-26T22:26:10.222Z,17.94
2022-08-26T22:31:14.722Z,17.92
2022-08-26T22:36:21.148Z,18.02
2022-08-26T22:41:24.251Z,17.96
2022-08-26T22:46:27.602Z,17.45
2022-08-26T22:51:29.984Z,17.40
2022-08-26T22:56:32.410Z,17.23
2022-08-26T23:01:37.971Z,17.75
2022-08-26T23:06:43.339Z,17.76
2022-08-26T23:11:50.052Z,17.69
2022-08-26T23:16:52.826Z,17.87
2022-08-26T23:21:56.521Z,17.93
2022-08-26T23:26:59.088Z,17.75
2022-08-26T23:32:01.810Z,17.39
2022-08-26T23:37:04.581Z,17.28
2022-08-26T23:42:09.020Z,17.12
2022-08-26T23:47:11.772Z,17.25
2022-08-26T23:52:32.255Z,17.23
2022-08-26T23:57:34.606Z,17.32
